createdAt,value
2019-05-05T00:01:45.889Z,17.10
2019-05-05T00:04:41.429Z,17.10
2019-05-05T00:07:30.482Z,17.10
2019-05-05T00:10:37.020Z,17.10
2019-05-05T00:13:27.280Z,17.10
2019-05-05T00:16:26.419Z,17.00
2019-05-05T00:19:28.790Z,17.00
2019-05-05T00:22:04.784Z,17.00
2019-05-05T00:24:54.625Z,17.00
2019-05-05T00:27:45.134Z,17.00
2019-05-05T00:30:34.316Z,16.90
2019-05-05T00:33:24.897Z,16.90
2019-05-05T00:36:14.505Z,16.90
2019-05-05T00:39:04.301Z,16.90
2019-05-05T00:41:52.644Z,16.90
2019-05-05T00:44:40.957Z,16.90
2019-05-05T00:47:36.215Z,16.90
2019-05-05T00:50:25.288Z,16.90
2019-05-05T00:53:14.563Z,16.90
2019-05-05T00:56:04.989Z,16.90
2019-05-05T00:58:55.261Z,16.90
2019-05-05T01:01:45.016Z,16.90
2019-05-05T01:04:40.543Z,16.90
2019-05-05T01:07:28.946Z,16.90
2019-05-05T01:10:17.398Z,16.90
2019-05-05T01:13:06.262Z,16.80
2019-05-05T01:15:54.535Z,16.80
2019-05-05T01:18:39.398Z,16.80
2019-05-05T01:21:27.513Z,16.80
2019-05-05T01:24:16.216Z,16.80
2019-05-05T01:27:04.900Z,16.70
2019-05-05T01:29:54.608Z,16.70
2019-05-05T01:32:44.734Z,16.70
2019-05-05T01:35:34.209Z,16.70
2019-05-05T01:38:27.278Z,16.60
2019-05-05T01:41:17.148Z,16.60
2019-05-05T01:44:05.468Z,16.60
2019-05-05T01:46:55.072Z,16.60
2019-05-05T01:49:45.380Z,16.60
2019-05-05T01:52:34.470Z,16.60
2019-05-05T01:55:22.653Z,16.50
2019-05-05T01:58:11.127Z,16.50
2019-05-05T02:00:59.378Z,16.50
2019-05-05T02:03:47.775Z,16.50
2019-05-05T02:06:35.965Z,16.50
2019-05-05T02:09:25.132Z,16.40
2019-05-05T02:12:15.209Z,16.40
2019-05-05T02:15:04.380Z,16.40
2019-05-05T02:17:54.901Z,16.40
2019-05-05T02:20:51.603Z,16.40
2019-05-05T02:23:39.841Z,16.40
2019-05-05T02:26:28.333Z,16.40
2019-05-05T02:29:35.329Z,16.40
2019-05-05T02:32:25.840Z,16.40
2019-05-05T02:35:16.463Z,16.30
2019-05-05T02:38:06.492Z,16.30
2019-05-05T02:40:55.684Z,16.30
2019-05-05T02:43:44.936Z,16.30
2019-05-05T02:46:35.876Z,16.20
2019-05-05T02:49:26.145Z,16.20
2019-05-05T02:52:16.821Z,16.30
2019-05-05T02:55:06.083Z,16.20
2019-05-05T02:57:55.133Z,16.20
2019-05-05T03:00:57.193Z,16.20
2019-05-05T03:03:45.929Z,16.20
2019-05-05T03:06:36.400Z,16.20
2019-05-05T03:09:28.873Z,16.10
2019-05-05T03:12:19.772Z,16.10
2019-05-05T03:15:08.400Z,16.20
2019-05-05T03:17:56.799Z,16.20
2019-05-05T03:20:27.587Z,16.20
2019-05-05T03:23:15.915Z,16.20
2019-05-05T03:26:04.494Z,16.20
2019-05-05T03:28:55.172Z,16.30
2019-05-05T03:31:45.698Z,16.30
2019-05-05T03:34:34.410Z,16.30
2019-05-05T03:37:24.829Z,16.40
2019-05-05T03:40:14.901Z,16.40
2019-05-05T03:43:05.118Z,16.40
2019-05-05T03:45:56.014Z,16.40
2019-05-05T03:48:44.312Z,16.40
2019-05-05T03:51:34.491Z,16.40
2019-05-05T03:54:05.730Z,16.40
2019-05-05T03:56:36.984Z,16.40
2019-05-05T03:59:07.726Z,16.40
2019-05-05T04:01:40.348Z,16.40
2019-05-05T04:04:30.166Z,16.40
2019-05-05T04:07:19.880Z,16.40
2019-05-05T04:10:07.980Z,16.40
2019-05-05T04:12:56.554Z,16.40
2019-05-05T04:15:46.327Z,16.40
2019-05-05T04:18:36.902Z,16.40
2019-05-05T04:21:33.578Z,16.30
2019-05-05T04:24:15.356Z,16.30
2019-05-05T04:27:04.139Z,16.30
2019-05-05T04:29:54.328Z,16.30
2019-05-05T04:32:43.900Z,16.30
2019-05-05T04:35:33.812Z,16.20
2019-05-05T04:38:21.586Z,16.30
2019-05-05T04:41:09.675Z,16.20
2019-05-05T04:43:58.008Z,16.20
2019-05-05T04:46:47.860Z,16.20
2019-05-05T04:49:53.824Z,16.20
2019-05-05T04:52:43.446Z,16.20
2019-05-05T04:55:31.357Z,16.20
2019-05-05T04:58:19.935Z,16.10
2019-05-05T05:01:08.206Z,16.10
2019-05-05T05:04:00.353Z,16.10
2019-05-05T05:06:55.476Z,16.10
2019-05-05T05:09:44.041Z,16.10
2019-05-05T05:12:34.148Z,16.10
2019-05-05T05:15:23.886Z,16.10
2019-05-05T05:18:14.744Z,16.10
2019-05-05T05:21:03.947Z,16.10
2019-05-05T05:23:53.621Z,16.10
2019-05-05T05:26:44.014Z,16.20
2019-05-05T05:29:31.840Z,16.20
2019-05-05T05:32:20.167Z,16.20
2019-05-05T05:35:08.514Z,16.20
2019-05-05T05:37:57.743Z,16.20
2019-05-05T05:41:04.249Z,16.20
2019-05-05T05:43:54.593Z,16.30
2019-05-05T05:46:44.201Z,16.30
2019-05-05T05:49:34.697Z,16.30
2019-05-05T05:52:24.268Z,16.40
2019-05-05T05:55:14.430Z,16.40
2019-05-05T05:58:04.600Z,16.50
2019-05-05T06:00:53.949Z,16.50
2019-05-05T06:03:44.216Z,16.60
2019-05-05T06:06:32.127Z,16.60
2019-05-05T06:09:20.280Z,16.70
2019-05-05T06:12:08.259Z,16.70
2019-05-05T06:14:56.586Z,16.90
2019-05-05T06:17:44.752Z,16.90
2019-05-05T06:20:34.351Z,17.00
2019-05-05T06:23:24.002Z,17.10
2019-05-05T06:26:15.227Z,17.20
2019-05-05T06:29:04.381Z,17.30
2019-05-05T06:31:53.759Z,17.40
2019-05-05T06:34:44.271Z,17.50
2019-05-05T06:37:34.220Z,17.60
2019-05-05T06:40:25.637Z,17.70
2019-05-05T06:43:30.390Z,17.80
2019-05-05T06:46:20.096Z,17.90
2019-05-05T06:49:08.118Z,18.10
2019-05-05T06:51:56.498Z,18.20
2019-05-05T06:54:44.936Z,18.30
2019-05-05T06:57:34.327Z,18.40
2019-05-05T07:00:24.176Z,18.50
2019-05-05T07:03:13.888Z,18.60
2019-05-05T07:06:04.295Z,18.80
2019-05-05T07:08:54.337Z,18.80
2019-05-05T07:11:43.662Z,18.90
2019-05-05T07:14:33.865Z,19.10
2019-05-05T07:17:21.689Z,19.20
2019-05-05T07:20:10.350Z,19.30
2019-05-05T07:23:02.959Z,19.40
2019-05-05T07:25:49.821Z,19.50
2019-05-05T07:28:38.260Z,19.50
2019-05-05T07:31:26.787Z,19.60
2019-05-05T07:34:16.068Z,19.60
2019-05-05T07:37:04.424Z,19.60
2019-05-05T07:39:54.131Z,19.30
2019-05-05T07:42:44.060Z,18.50
2019-05-05T07:45:34.317Z,18.00
2019-05-05T07:48:24.326Z,17.80
2019-05-05T07:51:14.106Z,17.50
2019-05-05T07:54:03.790Z,17.80
2019-05-05T07:56:53.818Z,18.20
2019-05-05T07:59:44.538Z,18.50
2019-05-05T08:02:33.360Z,18.60
2019-05-05T08:05:18.819Z,18.70
2019-05-05T08:08:07.085Z,18.90
2019-05-05T08:10:55.341Z,19.20
2019-05-05T08:13:44.313Z,19.40
2019-05-05T08:16:34.303Z,19.60
2019-05-05T08:19:34.594Z,19.70
2019-05-05T08:22:23.530Z,19.90
2019-05-05T08:25:16.669Z,20.10
2019-05-05T08:28:23.698Z,20.20
2019-05-05T08:31:19.234Z,20.40
2019-05-05T08:34:07.292Z,20.50
2019-05-05T08:36:55.440Z,20.70
2019-05-05T08:39:44.677Z,20.70
2019-05-05T08:42:15.528Z,20.70
2019-05-05T08:44:47.838Z,20.70
2019-05-05T08:47:19.527Z,20.70
2019-05-05T08:49:50.451Z,20.70
2019-05-05T08:52:21.380Z,20.60
2019-05-05T08:54:54.070Z,20.60
2019-05-05T08:57:24.672Z,20.70
2019-05-05T08:59:55.322Z,20.70
2019-05-05T09:02:26.150Z,20.70
2019-05-05T09:04:56.949Z,20.60
2019-05-05T09:07:45.400Z,20.60
2019-05-05T09:10:34.294Z,20.70
2019-05-05T09:13:24.641Z,20.80
2019-05-05T09:16:14.441Z,20.90
2019-05-05T09:19:04.366Z,21.00
2019-05-05T09:21:54.169Z,20.90
2019-05-05T09:24:53.723Z,20.80
2019-05-05T09:27:46.419Z,20.80
2019-05-05T09:30:38.067Z,20.80
2019-05-05T09:33:26.260Z,21.00
2019-05-05T09:36:14.361Z,21.00
2019-05-05T09:39:04.339Z,20.90
2019-05-05T09:41:53.626Z,20.90
2019-05-05T09:44:43.822Z,21.00
2019-05-05T09:47:33.943Z,21.00
2019-05-05T09:50:23.713Z,21.10
2019-05-05T09:53:11.934Z,21.10
2019-05-05T09:56:00.314Z,21.20
2019-05-05T09:58:48.519Z,21.30
2019-05-05T10:01:36.900Z,21.30
2019-05-05T10:04:26.345Z,21.30
2019-05-05T10:07:14.802Z,21.30
2019-05-05T10:10:04.626Z,21.30
2019-05-05T10:12:55.003Z,21.20
2019-05-05T10:15:44.384Z,21.20
2019-05-05T10:18:35.575Z,21.30
2019-05-05T10:21:24.468Z,21.30
2019-05-05T10:24:27.173Z,21.30
2019-05-05T10:27:04.922Z,21.30
2019-05-05T10:29:54.831Z,21.30
2019-05-05T10:32:43.881Z,21.30
2019-05-05T10:35:34.251Z,21.40
2019-05-05T10:38:23.561Z,21.40
2019-05-05T10:41:13.551Z,21.30
2019-05-05T10:44:03.674Z,21.30
2019-05-05T10:46:53.866Z,21.20
2019-05-05T10:49:44.126Z,21.20
2019-05-05T10:52:33.757Z,21.20
2019-05-05T10:55:23.879Z,21.30
2019-05-05T10:58:13.784Z,21.30
2019-05-05T11:01:04.196Z,21.30
2019-05-05T11:03:52.731Z,21.30
2019-05-05T11:06:41.173Z,21.30
2019-05-05T11:09:29.441Z,21.30
2019-05-05T11:12:17.823Z,21.40
2019-05-05T11:15:07.551Z,21.40
2019-05-05T11:17:56.789Z,21.40
2019-05-05T11:20:45.419Z,21.40
2019-05-05T11:23:34.629Z,21.40
2019-05-05T11:26:24.525Z,21.40
2019-05-05T11:29:13.582Z,21.50
2019-05-05T11:32:03.682Z,21.50
2019-05-05T11:34:53.494Z,21.50
2019-05-05T11:37:43.698Z,21.50
2019-05-05T11:40:32.289Z,21.50
2019-05-05T11:43:20.635Z,21.50
2019-05-05T11:46:08.863Z,21.50
2019-05-05T11:48:58.219Z,21.50
2019-05-05T11:51:46.318Z,21.40
2019-05-05T11:54:34.590Z,21.40
2019-05-05T11:57:23.982Z,21.10
2019-05-05T12:00:14.145Z,20.60
2019-05-05T12:03:03.857Z,20.20
2019-05-05T12:05:52.572Z,20.20
2019-05-05T12:08:43.602Z,20.40
2019-05-05T12:11:30.707Z,20.60
2019-05-05T12:14:20.485Z,20.70
2019-05-05T12:17:08.495Z,20.70
2019-05-05T12:19:56.715Z,20.80
2019-05-05T12:22:44.853Z,20.80
2019-05-05T12:25:37.949Z,20.90
2019-05-05T12:28:44.016Z,20.90
2019-05-05T12:31:34.028Z,20.90
2019-05-05T12:34:23.689Z,20.90
2019-05-05T12:37:14.146Z,20.90
2019-05-05T12:40:04.018Z,20.90
2019-05-05T12:42:54.324Z,21.00
2019-05-05T12:45:43.978Z,21.10
2019-05-05T12:48:39.845Z,21.10
2019-05-05T12:51:29.670Z,21.10
2019-05-05T12:54:37.671Z,20.90
2019-05-05T12:57:26.019Z,20.40
2019-05-05T13:00:15.814Z,19.90
2019-05-05T13:03:04.508Z,19.70
2019-05-05T13:05:53.567Z,19.50
2019-05-05T13:08:24.407Z,19.40
2019-05-05T13:11:13.433Z,19.30
2019-05-05T13:14:03.553Z,19.30
2019-05-05T13:16:55.327Z,19.20
2019-05-05T13:19:49.021Z,19.00
2019-05-05T13:22:39.137Z,19.00
2019-05-05T13:25:29.155Z,18.90
2019-05-05T13:28:17.302Z,18.90
2019-05-05T13:31:05.716Z,18.80
2019-05-05T13:33:54.855Z,18.80
2019-05-05T13:36:44.104Z,19.10
2019-05-05T13:39:34.027Z,19.50
2019-05-05T13:42:24.374Z,19.70
2019-05-05T13:45:30.431Z,19.80
2019-05-05T13:48:18.915Z,20.00
2019-05-05T13:51:11.340Z,20.10
2019-05-05T13:53:59.523Z,20.20
2019-05-05T13:56:48.111Z,19.80
2019-05-05T13:59:36.401Z,19.80
2019-05-05T14:02:24.600Z,19.90
2019-05-05T14:05:13.482Z,20.00
2019-05-05T14:08:04.153Z,20.00
2019-05-05T14:10:54.028Z,20.10
2019-05-05T14:13:44.440Z,20.20
2019-05-05T14:16:33.977Z,20.20
2019-05-05T14:19:24.632Z,20.30
2019-05-05T14:22:12.194Z,20.30
2019-05-05T14:25:08.438Z,20.40
2019-05-05T14:27:56.332Z,20.30
2019-05-05T14:30:57.795Z,20.30
2019-05-05T14:33:50.468Z,20.30
2019-05-05T14:36:44.107Z,20.30
2019-05-05T14:39:34.135Z,20.30
2019-05-05T14:42:23.509Z,20.30
2019-05-05T14:45:12.960Z,20.30
2019-05-05T14:48:00.902Z,20.30
2019-05-05T14:50:49.205Z,20.30
2019-05-05T14:53:37.332Z,20.30
2019-05-05T14:56:35.691Z,20.30
2019-05-05T14:59:15.093Z,20.30
2019-05-05T15:02:04.108Z,20.30
2019-05-05T15:04:53.980Z,20.40
2019-05-05T15:07:44.450Z,20.40
2019-05-05T15:10:29.145Z,20.40
2019-05-05T15:13:17.992Z,20.40
2019-05-05T15:16:07.035Z,20.40
2019-05-05T15:18:56.216Z,20.40
2019-05-05T15:21:44.779Z,20.50
2019-05-05T15:24:33.593Z,20.50
2019-05-05T15:27:24.014Z,20.50
2019-05-05T15:30:11.841Z,20.50
2019-05-05T15:33:00.510Z,20.50
2019-05-05T15:35:48.537Z,20.60
2019-05-05T15:38:36.808Z,20.60
2019-05-05T15:41:25.042Z,20.70
2019-05-05T15:44:13.559Z,20.70
2019-05-05T15:47:02.423Z,20.70
2019-05-05T15:49:33.125Z,20.80
2019-05-05T15:52:21.671Z,20.70
2019-05-05T15:55:10.279Z,20.80
2019-05-05T15:57:58.897Z,20.80
2019-05-05T16:00:47.779Z,20.90
2019-05-05T16:03:36.403Z,20.90
2019-05-05T16:06:24.865Z,21.00
2019-05-05T16:09:13.697Z,21.00
2019-05-05T16:12:03.637Z,21.00
2019-05-05T16:14:53.828Z,21.00
2019-05-05T16:17:44.147Z,21.00
2019-05-05T16:20:37.192Z,21.00
2019-05-05T16:23:44.780Z,21.00
2019-05-05T16:26:33.321Z,21.00
2019-05-05T16:29:23.642Z,21.00
2019-05-05T16:32:19.557Z,21.00
2019-05-05T16:35:05.485Z,21.00
2019-05-05T16:37:51.097Z,21.00
2019-05-05T16:40:39.538Z,21.00
2019-05-05T16:43:28.023Z,21.00
2019-05-05T16:46:17.092Z,20.90
2019-05-05T16:49:05.354Z,21.00
2019-05-05T16:51:55.217Z,21.00
2019-05-05T16:54:44.997Z,20.90
2019-05-05T16:57:34.730Z,20.90
2019-05-05T17:00:25.676Z,20.90
2019-05-05T17:03:13.559Z,20.90
2019-05-05T17:06:05.275Z,20.80
2019-05-05T17:08:53.689Z,20.80
2019-05-05T17:11:48.589Z,20.80
2019-05-05T17:14:38.795Z,20.80
2019-05-05T17:17:44.626Z,20.70
2019-05-05T17:20:53.559Z,20.70
2019-05-05T17:23:43.455Z,20.70
2019-05-05T17:26:32.902Z,20.60
2019-05-05T17:29:23.462Z,20.60
2019-05-05T17:32:11.381Z,20.60
2019-05-05T17:34:59.589Z,20.50
2019-05-05T17:37:48.018Z,20.50
2019-05-05T17:40:43.451Z,20.50
2019-05-05T17:43:36.656Z,20.50
2019-05-05T17:46:26.858Z,20.50
2019-05-05T17:49:22.296Z,20.50
2019-05-05T17:52:10.648Z,20.50
2019-05-05T17:54:44.576Z,20.50
2019-05-05T17:57:34.522Z,20.50
2019-05-05T18:00:24.308Z,20.50
2019-05-05T18:03:12.646Z,20.50
2019-05-05T18:06:05.636Z,20.50
2019-05-05T18:08:54.144Z,20.60
2019-05-05T18:11:59.011Z,20.60
2019-05-05T18:14:53.665Z,20.60
2019-05-05T18:17:43.380Z,20.60
2019-05-05T18:20:34.112Z,20.60
2019-05-05T18:23:23.441Z,20.70
2019-05-05T18:26:13.521Z,20.70
2019-05-05T18:29:03.601Z,20.70
2019-05-05T18:31:53.402Z,20.70
2019-05-05T18:34:41.686Z,20.70
2019-05-05T18:37:30.190Z,20.70
2019-05-05T18:40:18.784Z,20.70
2019-05-05T18:43:08.730Z,20.70
2019-05-05T18:46:04.583Z,20.70
2019-05-05T18:48:54.508Z,20.70
2019-05-05T18:51:43.958Z,20.70
2019-05-05T18:54:34.005Z,20.70
2019-05-05T18:57:24.495Z,20.70
2019-05-05T19:00:14.399Z,20.70
2019-05-05T19:03:17.557Z,20.70
2019-05-05T19:05:56.727Z,20.70
2019-05-05T19:08:54.226Z,20.70
2019-05-05T19:11:37.042Z,20.70
2019-05-05T19:14:25.642Z,20.70
2019-05-05T19:17:14.263Z,20.70
2019-05-05T19:20:06.676Z,20.70
2019-05-05T19:23:03.536Z,20.70
2019-05-05T19:25:55.829Z,20.70
2019-05-05T19:28:47.303Z,20.70
2019-05-05T19:31:36.502Z,20.70
2019-05-05T19:34:24.118Z,20.70
2019-05-05T19:37:13.961Z,20.70
2019-05-05T19:40:06.119Z,20.70
2019-05-05T19:42:54.679Z,20.60
2019-05-05T19:45:44.815Z,20.60
2019-05-05T19:48:34.057Z,20.70
2019-05-05T19:51:23.968Z,20.70
2019-05-05T19:54:14.300Z,20.70
2019-05-05T19:57:04.869Z,20.70
2019-05-05T20:00:14.436Z,20.60
2019-05-05T20:03:05.180Z,20.70
2019-05-05T20:05:59.085Z,20.60
2019-05-05T20:08:47.329Z,20.70
2019-05-05T20:11:35.883Z,20.60
2019-05-05T20:14:27.379Z,20.70
2019-05-05T20:17:23.815Z,20.60
2019-05-05T20:20:33.124Z,20.60
2019-05-05T20:23:20.998Z,20.60
2019-05-05T20:26:10.861Z,20.60
2019-05-05T20:29:10.404Z,20.50
2019-05-05T20:31:49.161Z,20.50
2019-05-05T20:34:41.355Z,20.50
2019-05-05T20:37:42.938Z,20.40
2019-05-05T20:40:34.851Z,20.40
2019-05-05T20:43:22.848Z,20.40
2019-05-05T20:46:11.596Z,20.40
2019-05-05T20:48:59.784Z,20.30
2019-05-05T20:51:48.416Z,20.30
2019-05-05T20:54:36.663Z,20.20
2019-05-05T20:57:24.730Z,20.20
2019-05-05T21:00:14.628Z,20.20
2019-05-05T21:03:04.768Z,20.10
2019-05-05T21:05:53.838Z,20.10
2019-05-05T21:08:44.031Z,20.00
2019-05-05T21:11:31.937Z,20.00
2019-05-05T21:14:31.148Z,20.00
2019-05-05T21:17:10.187Z,20.00
2019-05-05T21:19:58.391Z,19.90
2019-05-05T21:22:48.325Z,19.90
2019-05-05T21:25:37.828Z,19.80
2019-05-05T21:28:26.052Z,19.80
2019-05-05T21:31:14.577Z,19.80
2019-05-05T21:34:03.124Z,19.70
2019-05-05T21:36:51.229Z,19.70
2019-05-05T21:39:39.781Z,19.60
2019-05-05T21:42:28.126Z,19.60
2019-05-05T21:45:16.636Z,19.60
2019-05-05T21:48:05.144Z,19.50
2019-05-05T21:51:09.442Z,19.50
2019-05-05T21:54:16.109Z,19.50
2019-05-05T21:57:23.449Z,19.40
2019-05-05T22:00:14.687Z,19.40
2019-05-05T22:03:04.537Z,19.40
2019-05-05T22:05:53.958Z,19.30
2019-05-05T22:08:43.054Z,19.30
2019-05-05T22:11:31.316Z,19.20
2019-05-05T22:14:19.648Z,19.20
2019-05-05T22:17:08.090Z,19.20
2019-05-05T22:20:00.495Z,19.10
2019-05-05T22:22:49.365Z,19.10
2019-05-05T22:25:37.900Z,19.00
2019-05-05T22:28:26.550Z,19.00
2019-05-05T22:31:14.695Z,19.00
2019-05-05T22:34:03.639Z,19.00
2019-05-05T22:36:52.887Z,18.90
2019-05-05T22:39:41.465Z,18.90
2019-05-05T22:42:30.528Z,18.80
2019-05-05T22:45:19.025Z,18.80
2019-05-05T22:48:07.489Z,18.80
2019-05-05T22:50:55.912Z,18.80
2019-05-05T22:53:44.402Z,18.70
2019-05-05T22:56:33.723Z,18.70
2019-05-05T22:59:24.181Z,18.60
2019-05-05T23:02:14.492Z,18.60
2019-05-05T23:05:04.140Z,18.60
2019-05-05T23:07:54.071Z,18.50
2019-05-05T23:10:43.751Z,18.50
2019-05-05T23:13:33.732Z,18.50
2019-05-05T23:16:26.559Z,18.40
2019-05-05T23:19:15.064Z,18.40
2019-05-05T23:22:06.170Z,18.40
2019-05-05T23:24:55.865Z,18.40
2019-05-05T23:27:47.195Z,18.30
2019-05-05T23:30:41.487Z,18.30
2019-05-05T23:33:26.106Z,18.30
2019-05-05T23:36:14.878Z,18.20
2019-05-05T23:39:05.696Z,18.20
2019-05-05T23:41:54.825Z,18.20
2019-05-05T23:44:43.187Z,18.10
2019-05-05T23:47:31.339Z,18.10
2019-05-05T23:50:19.879Z,18.10
2019-05-05T23:53:08.357Z,18.10
2019-05-05T23:55:56.882Z,18.00
2019-05-05T23:58:27.519Z,18.00
